createdAt,value
2023-03-07T00:02:10.121Z,62.66
2023-03-07T00:04:45.730Z,62.72
2023-03-07T00:07:18.782Z,62.64
2023-03-07T00:09:49.705Z,62.79
2023-03-07T00:12:22.140Z,62.81
2023-03-07T00:14:53.764Z,62.66
2023-03-07T00:17:27.904Z,62.70
2023-03-07T00:19:59.345Z,62.76
2023-03-07T00:22:30.423Z,62.87
2023-03-07T00:24:59.885Z,62.75
2023-03-07T00:27:32.846Z,62.83
2023-03-07T00:30:06.382Z,62.81
2023-03-07T00:32:38.961Z,62.74
2023-03-07T00:35:09.332Z,62.68
2023-03-07T00:37:39.131Z,62.82
2023-03-07T00:40:10.144Z,62.90
2023-03-07T00:42:41.622Z,62.79
2023-03-07T00:45:13.905Z,63.06
2023-03-07T00:47:45.299Z,62.97
2023-03-07T00:50:17.452Z,62.99
2023-03-07T00:52:48.152Z,63.07
2023-03-07T00:55:18.801Z,63.22
2023-03-07T00:57:48.407Z,63.14
2023-03-07T01:00:20.847Z,63.31
2023-03-07T01:02:52.763Z,63.24
2023-03-07T01:05:22.125Z,63.30
2023-03-07T01:07:56.493Z,63.36
2023-03-07T01:10:29.707Z,63.51
2023-03-07T01:13:01.381Z,63.54
2023-03-07T01:16:15.299Z,63.51
2023-03-07T01:18:49.311Z,63.45
2023-03-07T01:21:26.898Z,63.49
2023-03-07T01:23:58.270Z,63.52
2023-03-07T01:26:31.136Z,63.52
2023-03-07T01:29:05.148Z,63.43
2023-03-07T01:31:37.524Z,63.48
2023-03-07T01:34:09.005Z,63.37
2023-03-07T01:36:43.318Z,63.51
2023-03-07T01:39:16.081Z,63.59
2023-03-07T01:42:01.522Z,63.62
2023-03-07T01:44:54.986Z,63.52
2023-03-07T01:47:28.706Z,63.60
2023-03-07T01:50:02.726Z,63.62
2023-03-07T01:52:43.538Z,63.63
2023-03-07T01:55:19.458Z,63.52
2023-03-07T01:57:52.812Z,63.67
2023-03-07T02:00:29.303Z,63.66
2023-03-07T02:03:07.775Z,63.65
2023-03-07T02:05:48.193Z,63.77
2023-03-07T02:08:21.026Z,63.83
2023-03-07T02:10:51.913Z,64.02
2023-03-07T02:13:22.452Z,63.91
2023-03-07T02:16:19.709Z,63.92
2023-03-07T02:18:50.902Z,63.98
2023-03-07T02:21:34.806Z,63.91
2023-03-07T02:24:30.901Z,64.01
2023-03-07T02:27:00.452Z,63.90
2023-03-07T02:29:29.732Z,63.85
2023-03-07T02:32:00.721Z,64.06
2023-03-07T02:34:31.862Z,64.19
2023-03-07T02:37:26.664Z,64.27
2023-03-07T02:40:00.484Z,64.19
2023-03-07T02:42:36.866Z,64.19
2023-03-07T02:45:14.584Z,64.17
2023-03-07T02:47:46.332Z,64.12
2023-03-07T02:50:20.057Z,64.20
2023-03-07T02:52:55.559Z,64.28
2023-03-07T02:55:25.696Z,64.21
2023-03-07T02:58:00.474Z,63.96
2023-03-07T03:00:33.002Z,64.31
2023-03-07T03:03:02.596Z,64.24
2023-03-07T03:05:33.406Z,64.25
2023-03-07T03:08:03.444Z,64.41
2023-03-07T03:10:33.698Z,64.48
2023-03-07T03:13:04.949Z,64.46
2023-03-07T03:15:35.872Z,64.62
2023-03-07T03:18:05.968Z,64.56
2023-03-07T03:20:41.527Z,64.67
2023-03-07T03:23:13.507Z,64.74
2023-03-07T03:25:44.877Z,64.68
2023-03-07T03:28:16.155Z,64.74
2023-03-07T03:30:46.486Z,64.51
2023-03-07T03:33:17.852Z,64.66
2023-03-07T03:35:53.958Z,64.87
2023-03-07T03:38:24.265Z,64.74
2023-03-07T03:40:55.704Z,64.71
2023-03-07T03:43:25.732Z,64.70
2023-03-07T03:45:58.994Z,64.63
2023-03-07T03:48:32.878Z,64.85
2023-03-07T03:51:10.986Z,64.80
2023-03-07T03:53:41.146Z,64.97
2023-03-07T03:56:14.969Z,64.79
2023-03-07T03:58:45.466Z,64.75
2023-03-07T04:01:15.499Z,65.00
2023-03-07T04:03:48.055Z,65.10
2023-03-07T04:06:24.385Z,65.08
2023-03-07T04:08:56.548Z,65.09
2023-03-07T04:11:30.268Z,64.96
2023-03-07T04:14:03.391Z,65.04
2023-03-07T04:16:34.973Z,65.20
2023-03-07T04:19:05.218Z,65.24
2023-03-07T04:21:39.486Z,65.28
2023-03-07T04:24:10.350Z,65.25
2023-03-07T04:26:41.054Z,65.26
2023-03-07T04:29:11.426Z,65.42
2023-03-07T04:31:49.362Z,65.23
2023-03-07T04:34:21.659Z,65.39
2023-03-07T04:36:53.879Z,65.40
2023-03-07T04:39:24.544Z,65.25
2023-03-07T04:41:54.114Z,65.32
2023-03-07T04:44:27.985Z,65.13
2023-03-07T04:46:57.606Z,65.06
2023-03-07T04:49:30.199Z,65.25
2023-03-07T04:52:02.811Z,65.27
2023-03-07T04:54:33.382Z,65.40
2023-03-07T04:57:04.893Z,65.34
2023-03-07T04:59:39.436Z,65.19
2023-03-07T05:02:13.961Z,65.29
2023-03-07T05:04:44.584Z,65.49
2023-03-07T05:07:14.378Z,65.45
2023-03-07T05:09:46.235Z,65.53
2023-03-07T05:12:17.261Z,65.56
2023-03-07T05:14:48.641Z,65.72
2023-03-07T05:17:20.572Z,65.67
2023-03-07T05:19:55.338Z,65.58
2023-03-07T05:22:27.243Z,65.74
2023-03-07T05:24:59.141Z,65.77
2023-03-07T05:27:30.507Z,65.61
2023-03-07T05:30:01.211Z,65.70
2023-03-07T05:32:31.586Z,65.81
2023-03-07T05:35:03.450Z,65.67
2023-03-07T05:37:34.293Z,65.61
2023-03-07T05:40:10.604Z,65.43
2023-03-07T05:42:46.433Z,65.46
2023-03-07T05:45:17.432Z,65.40
2023-03-07T05:47:48.974Z,65.23
2023-03-07T05:50:21.643Z,65.12
2023-03-07T05:52:54.024Z,64.98
2023-03-07T05:55:28.856Z,65.29
2023-03-07T05:57:59.104Z,65.17
2023-03-07T06:00:32.161Z,65.24
2023-03-07T06:03:05.540Z,65.30
2023-03-07T06:05:37.454Z,65.33
2023-03-07T06:08:08.384Z,65.43
2023-03-07T06:10:40.464Z,65.53
2023-03-07T06:13:22.248Z,65.57
2023-03-07T06:16:20.845Z,65.59
2023-03-07T06:18:55.148Z,65.57
2023-03-07T06:21:25.505Z,65.56
2023-03-07T06:23:58.760Z,65.44
2023-03-07T06:26:29.969Z,65.49
2023-03-07T06:29:00.703Z,65.45
2023-03-07T06:31:31.856Z,65.34
2023-03-07T06:34:03.886Z,65.27
2023-03-07T06:36:35.309Z,65.06
2023-03-07T06:39:06.652Z,64.96
2023-03-07T06:41:37.473Z,64.98
2023-03-07T06:44:08.014Z,64.95
2023-03-07T06:46:39.494Z,65.04
2023-03-07T06:49:14.487Z,65.00
2023-03-07T06:51:45.735Z,65.09
2023-03-07T06:54:16.443Z,64.99
2023-03-07T06:56:47.144Z,64.79
2023-03-07T06:59:21.077Z,64.95
2023-03-07T07:01:53.814Z,64.70
2023-03-07T07:04:26.586Z,64.33
2023-03-07T07:06:56.573Z,64.27
2023-03-07T07:09:26.869Z,64.42
2023-03-07T07:11:59.720Z,63.71
2023-03-07T07:14:34.469Z,62.72
2023-03-07T07:17:05.516Z,62.51
2023-03-07T07:19:37.422Z,61.84
2023-03-07T07:22:12.285Z,61.50
2023-03-07T07:24:42.480Z,61.43
2023-03-07T07:27:12.704Z,61.26
2023-03-07T07:29:43.335Z,61.43
2023-03-07T07:32:14.109Z,61.32
2023-03-07T07:34:45.227Z,61.25
2023-03-07T07:37:14.884Z,61.07
2023-03-07T07:39:45.678Z,61.15
2023-03-07T07:42:15.716Z,60.47
2023-03-07T07:44:57.734Z,59.89
2023-03-07T07:47:28.202Z,58.94
2023-03-07T07:50:00.919Z,58.88
2023-03-07T07:52:36.064Z,58.20
2023-03-07T07:55:08.140Z,58.23
2023-03-07T07:57:38.185Z,59.10
2023-03-07T08:00:10.863Z,59.63
2023-03-07T08:02:43.991Z,60.48
2023-03-07T08:05:15.560Z,61.17
2023-03-07T08:07:47.318Z,61.75
2023-03-07T08:10:18.942Z,61.44
2023-03-07T08:12:53.578Z,61.51
2023-03-07T08:15:51.154Z,61.70
2023-03-07T08:18:21.840Z,62.09
2023-03-07T08:20:51.783Z,62.50
2023-03-07T08:23:25.609Z,62.22
2023-03-07T08:25:56.611Z,62.20
2023-03-07T08:28:29.456Z,61.76
2023-03-07T08:31:16.823Z,61.95
2023-03-07T08:33:51.011Z,61.99
2023-03-07T08:36:21.658Z,61.71
2023-03-07T08:38:55.523Z,62.16
2023-03-07T08:41:26.924Z,62.55
2023-03-07T08:43:56.344Z,62.45
2023-03-07T08:46:27.970Z,63.02
2023-03-07T08:49:00.056Z,62.99
2023-03-07T08:51:31.289Z,63.56
2023-03-07T08:54:02.217Z,63.83
2023-03-07T08:56:33.202Z,63.87
2023-03-07T08:59:03.798Z,63.90
2023-03-07T09:01:36.177Z,63.44
2023-03-07T09:04:06.318Z,61.68
2023-03-07T09:06:38.114Z,59.92
2023-03-07T09:09:09.657Z,59.40
2023-03-07T09:11:41.968Z,59.10
2023-03-07T09:14:12.437Z,59.25
2023-03-07T09:16:43.937Z,59.39
2023-03-07T09:19:18.110Z,59.26
2023-03-07T09:21:50.101Z,59.48
2023-03-07T09:24:21.580Z,59.99
2023-03-07T09:26:51.547Z,60.65
2023-03-07T09:29:23.088Z,61.56
2023-03-07T09:31:52.694Z,62.41
2023-03-07T09:34:25.294Z,62.68
2023-03-07T09:36:57.981Z,62.49
2023-03-07T09:39:28.904Z,62.90
2023-03-07T09:42:36.030Z,63.15
2023-03-07T09:45:19.543Z,63.03
2023-03-07T09:48:43.605Z,63.42
2023-03-07T09:51:46.114Z,63.51
2023-03-07T09:54:22.243Z,63.58
2023-03-07T09:57:03.481Z,63.70
2023-03-07T09:59:40.778Z,64.27
2023-03-07T10:02:46.074Z,64.46
2023-03-07T10:05:44.609Z,64.34
2023-03-07T10:08:23.327Z,64.27
2023-03-07T10:11:12.045Z,64.59
2023-03-07T10:14:01.655Z,64.58
2023-03-07T10:16:59.023Z,64.47
2023-03-07T10:19:50.368Z,64.62
2023-03-07T10:25:46.512Z,64.46
2023-03-07T10:28:37.076Z,64.28
2023-03-07T10:31:37.471Z,64.10
2023-03-07T10:34:30.761Z,64.40
2023-03-07T10:37:14.393Z,64.71
2023-03-07T10:40:18.912Z,64.56
2023-03-07T10:42:50.059Z,64.68
2023-03-07T10:45:20.180Z,64.49
2023-03-07T10:47:53.598Z,64.78
2023-03-07T10:50:30.362Z,65.27
2023-03-07T10:53:03.391Z,65.26
2023-03-07T10:55:44.664Z,65.01
2023-03-07T10:58:30.366Z,65.30
2023-03-07T11:01:01.928Z,65.48
2023-03-07T11:03:51.872Z,65.57
2023-03-07T11:06:45.188Z,65.70
2023-03-07T11:09:31.972Z,65.71
2023-03-07T11:12:05.153Z,65.89
2023-03-07T11:14:54.024Z,65.78
2023-03-07T11:17:43.755Z,65.80
2023-03-07T11:20:23.065Z,66.16
2023-03-07T11:23:35.333Z,65.95
2023-03-07T11:26:24.996Z,66.46
2023-03-07T11:29:14.894Z,66.15
2023-03-07T11:32:12.551Z,66.51
2023-03-07T11:34:59.760Z,66.49
2023-03-07T11:37:35.390Z,66.58
2023-03-07T11:40:25.263Z,66.60
2023-03-07T11:43:36.084Z,66.65
2023-03-07T11:46:18.782Z,66.76
2023-03-07T11:49:05.426Z,66.87
2023-03-07T11:51:43.980Z,66.85
2023-03-07T11:54:27.466Z,66.94
2023-03-07T11:57:03.857Z,66.92
2023-03-07T12:00:01.799Z,66.99
2023-03-07T12:03:12.706Z,66.84
2023-03-07T12:05:56.953Z,66.75
2023-03-07T12:08:44.136Z,66.84
2023-03-07T12:11:20.397Z,66.96
2023-03-07T12:14:08.981Z,66.96
2023-03-07T12:17:28.879Z,67.20
2023-03-07T12:20:24.277Z,67.21
2023-03-07T12:23:07.356Z,67.54
2023-03-07T12:25:44.481Z,67.89
2023-03-07T12:28:23.389Z,67.94
2023-03-07T12:31:17.724Z,68.04
2023-03-07T12:33:55.835Z,67.90
2023-03-07T12:36:55.566Z,68.09
2023-03-07T12:39:51.047Z,68.07
2023-03-07T12:42:39.878Z,68.40
2023-03-07T12:45:13.519Z,68.78
2023-03-07T12:47:59.213Z,68.78
2023-03-07T12:50:50.430Z,68.82
2023-03-07T12:53:46.966Z,69.14
2023-03-07T12:56:34.794Z,69.29
2023-03-07T12:59:17.034Z,69.34
2023-03-07T13:02:00.016Z,69.50
2023-03-07T13:04:38.626Z,69.76
2023-03-07T13:07:27.058Z,69.80
2023-03-07T13:10:00.470Z,70.04
2023-03-07T13:12:30.508Z,69.90
2023-03-07T13:16:16.357Z,69.92
2023-03-07T13:18:46.529Z,70.24
2023-03-07T13:21:46.313Z,70.62
2023-03-07T13:24:40.557Z,70.53
2023-03-07T13:27:20.705Z,70.52
2023-03-07T13:30:31.087Z,70.53
2023-03-07T13:33:06.165Z,70.46
2023-03-07T13:35:38.675Z,70.49
2023-03-07T13:38:49.309Z,70.64
2023-03-07T13:41:48.375Z,70.93
2023-03-07T13:44:38.272Z,71.00
2023-03-07T13:47:44.390Z,71.09
2023-03-07T13:50:35.060Z,71.03
2023-03-07T13:53:33.896Z,71.08
2023-03-07T13:56:41.976Z,71.17
2023-03-07T13:59:29.131Z,71.19
2023-03-07T14:02:18.486Z,71.40
2023-03-07T14:04:54.820Z,71.28
2023-03-07T14:07:37.678Z,71.19
2023-03-07T14:10:22.864Z,71.63
2023-03-07T14:13:01.534Z,71.52
2023-03-07T14:16:03.648Z,71.41
2023-03-07T14:18:51.337Z,71.55
2023-03-07T14:21:33.828Z,71.75
2023-03-07T14:24:36.036Z,71.66
2023-03-07T14:27:17.300Z,71.75
2023-03-07T14:30:01.075Z,71.84
2023-03-07T14:32:35.798Z,71.58
2023-03-07T14:35:07.076Z,71.70
2023-03-07T14:37:36.859Z,72.04
2023-03-07T14:40:33.763Z,72.00
2023-03-07T14:43:36.504Z,72.08
2023-03-07T14:46:54.825Z,72.13
2023-03-07T14:49:42.714Z,72.16
2023-03-07T14:52:29.679Z,72.42
2023-03-07T14:55:03.943Z,72.43
2023-03-07T14:57:46.887Z,72.29
2023-03-07T15:00:21.366Z,72.46
2023-03-07T15:02:56.620Z,72.54
2023-03-07T15:05:38.154Z,72.43
2023-03-07T15:08:27.414Z,72.70
2023-03-07T15:11:07.126Z,72.78
2023-03-07T15:13:46.836Z,72.78
2023-03-07T15:16:32.716Z,72.91
2023-03-07T15:19:12.394Z,72.95
2023-03-07T15:21:53.113Z,72.93
2023-03-07T15:24:31.579Z,72.98
2023-03-07T15:27:07.102Z,73.13
2023-03-07T15:29:42.677Z,73.17
2023-03-07T15:32:40.481Z,73.07
2023-03-07T15:35:19.024Z,73.16
2023-03-07T15:38:06.569Z,73.36
2023-03-07T15:40:47.167Z,73.36
2023-03-07T15:43:29.473Z,73.54
2023-03-07T15:46:28.590Z,73.66
2023-03-07T15:49:01.705Z,73.80
2023-03-07T15:51:39.317Z,73.84
2023-03-07T15:54:36.520Z,73.96
2023-03-07T15:57:20.258Z,74.08
2023-03-07T15:59:56.764Z,74.16
2023-03-07T16:02:49.735Z,74.17
2023-03-07T16:05:23.731Z,74.22
2023-03-07T16:07:58.208Z,74.32
2023-03-07T16:10:34.201Z,74.18
2023-03-07T16:13:04.541Z,74.28
2023-03-07T16:15:37.606Z,74.15
2023-03-07T16:18:08.223Z,74.20
2023-03-07T16:20:39.928Z,74.32
2023-03-07T16:23:13.697Z,74.35
2023-03-07T16:25:45.574Z,74.41
2023-03-07T16:28:15.986Z,74.51
2023-03-07T16:30:49.688Z,74.44
2023-03-07T16:33:23.872Z,74.54
2023-03-07T16:35:54.782Z,74.55
2023-03-07T16:38:27.911Z,74.59
2023-03-07T16:40:59.687Z,74.53
2023-03-07T16:43:41.504Z,74.54
2023-03-07T16:47:29.569Z,74.82
2023-03-07T16:50:00.170Z,74.77
2023-03-07T16:52:36.320Z,74.90
2023-03-07T16:55:05.984Z,74.77
2023-03-07T16:57:37.633Z,74.92
2023-03-07T17:00:08.943Z,74.98
2023-03-07T17:02:39.373Z,75.20
2023-03-07T17:05:28.175Z,75.03
2023-03-07T17:08:00.341Z,75.14
2023-03-07T17:10:32.195Z,75.16
2023-03-07T17:13:04.415Z,75.36
2023-03-07T17:15:35.628Z,75.58
2023-03-07T17:18:06.157Z,75.31
2023-03-07T17:20:36.195Z,75.57
2023-03-07T17:23:07.175Z,75.68
2023-03-07T17:25:40.193Z,75.59
2023-03-07T17:28:20.146Z,75.84
2023-03-07T17:30:52.095Z,75.95
2023-03-07T17:33:22.405Z,76.14
2023-03-07T17:35:52.358Z,76.06
2023-03-07T17:38:24.663Z,76.65
2023-03-07T17:40:58.556Z,76.48
2023-03-07T17:43:29.409Z,76.59
2023-03-07T17:46:11.443Z,76.63
2023-03-07T17:48:43.977Z,76.86
2023-03-07T17:51:18.534Z,76.66
2023-03-07T17:53:53.138Z,76.48
2023-03-07T17:56:31.299Z,77.19
2023-03-07T17:59:03.937Z,77.27
2023-03-07T18:01:40.398Z,77.06
2023-03-07T18:04:12.479Z,76.93
2023-03-07T18:06:43.977Z,77.01
2023-03-07T18:09:16.370Z,77.07
2023-03-07T18:11:50.700Z,77.35
2023-03-07T18:14:23.968Z,77.36
2023-03-07T18:16:58.522Z,77.37
2023-03-07T18:19:33.575Z,77.44
2023-03-07T18:22:06.974Z,77.49
2023-03-07T18:24:38.452Z,77.72
2023-03-07T18:27:09.776Z,77.74
2023-03-07T18:29:44.549Z,77.81
2023-03-07T18:32:20.297Z,77.67
2023-03-07T18:34:52.833Z,77.75
2023-03-07T18:37:26.928Z,77.94
2023-03-07T18:40:00.800Z,78.11
2023-03-07T18:42:36.289Z,78.07
2023-03-07T18:45:13.100Z,78.14
2023-03-07T18:47:47.191Z,78.25
2023-03-07T18:50:21.221Z,78.23
2023-03-07T18:52:54.401Z,78.18
2023-03-07T18:55:27.340Z,78.18
2023-03-07T18:58:01.401Z,78.00
2023-03-07T19:00:34.335Z,78.08
2023-03-07T19:03:09.462Z,78.28
2023-03-07T19:05:54.202Z,78.20
2023-03-07T19:08:27.604Z,78.38
2023-03-07T19:11:02.924Z,78.54
2023-03-07T19:13:37.093Z,78.64
2023-03-07T19:16:15.431Z,78.85
2023-03-07T19:18:49.480Z,79.00
2023-03-07T19:21:30.004Z,78.81
2023-03-07T19:24:08.072Z,79.02
2023-03-07T19:26:41.491Z,78.71
2023-03-07T19:29:14.519Z,78.75
2023-03-07T19:31:48.058Z,78.36
2023-03-07T19:34:24.060Z,78.11
2023-03-07T19:37:00.964Z,78.02
2023-03-07T19:39:34.626Z,77.96
2023-03-07T19:42:08.932Z,77.93
2023-03-07T19:44:40.735Z,77.96
2023-03-07T19:47:16.542Z,77.52
2023-03-07T19:49:51.832Z,77.92
2023-03-07T19:52:26.030Z,77.73
2023-03-07T19:55:01.734Z,77.89
2023-03-07T19:57:47.691Z,77.37
2023-03-07T20:00:22.211Z,76.97
2023-03-07T20:03:03.520Z,77.14
2023-03-07T20:05:36.668Z,77.12
2023-03-07T20:08:09.777Z,77.01
2023-03-07T20:10:53.829Z,77.07
2023-03-07T20:13:42.023Z,77.16
2023-03-07T20:16:18.621Z,77.08
2023-03-07T20:18:53.791Z,77.22
2023-03-07T20:21:30.449Z,77.46
2023-03-07T20:24:06.235Z,77.31
2023-03-07T20:26:42.258Z,77.42
2023-03-07T20:29:17.222Z,77.42
2023-03-07T20:31:53.101Z,77.39
2023-03-07T20:34:30.203Z,77.29
2023-03-07T20:37:06.183Z,77.41
2023-03-07T20:39:50.560Z,77.54
2023-03-07T20:42:30.447Z,77.57
2023-03-07T20:45:12.131Z,77.51
2023-03-07T20:47:48.332Z,77.47
2023-03-07T20:50:25.868Z,77.68
2023-03-07T20:53:01.533Z,77.47
2023-03-07T20:55:38.576Z,77.59
2023-03-07T20:58:24.480Z,77.72
2023-03-07T21:00:57.711Z,77.55
2023-03-07T21:03:30.709Z,77.76
2023-03-07T21:06:07.526Z,77.55
2023-03-07T21:08:42.649Z,77.59
2023-03-07T21:11:19.039Z,77.73
2023-03-07T21:13:51.333Z,77.67
2023-03-07T21:16:24.723Z,77.73
2023-03-07T21:19:04.346Z,77.44
2023-03-07T21:21:37.361Z,77.61
2023-03-07T21:24:17.368Z,77.69
2023-03-07T21:26:49.921Z,77.72
2023-03-07T21:29:22.774Z,77.70
2023-03-07T21:32:00.006Z,77.72
2023-03-07T21:34:35.039Z,77.54
2023-03-07T21:37:07.255Z,77.70
2023-03-07T21:39:39.258Z,77.81
2023-03-07T21:42:13.390Z,77.62
2023-03-07T21:44:44.313Z,77.96
2023-03-07T21:47:20.812Z,77.75
2023-03-07T21:49:55.389Z,78.09
2023-03-07T21:52:30.261Z,78.01
2023-03-07T21:55:04.266Z,78.11
2023-03-07T21:57:35.165Z,77.88
2023-03-07T22:00:10.699Z,78.05
2023-03-07T22:02:42.783Z,77.92
2023-03-07T22:05:13.252Z,77.98
2023-03-07T22:07:44.686Z,78.09
2023-03-07T22:10:17.935Z,78.10
2023-03-07T22:12:47.243Z,78.33
2023-03-07T22:15:22.444Z,78.11
2023-03-07T22:17:52.385Z,78.16
2023-03-07T22:20:26.640Z,78.27
2023-03-07T22:22:59.334Z,78.43
2023-03-07T22:25:30.542Z,78.42
2023-03-07T22:28:04.041Z,78.16
2023-03-07T22:30:34.243Z,78.17
2023-03-07T22:33:04.891Z,78.22
2023-03-07T22:35:51.053Z,78.50
2023-03-07T22:38:33.057Z,78.13
2023-03-07T22:41:42.297Z,78.18
2023-03-07T22:44:28.588Z,78.50
2023-03-07T22:47:19.790Z,78.31
2023-03-07T22:49:54.302Z,78.28
2023-03-07T22:52:26.008Z,78.74
2023-03-07T22:54:59.719Z,78.63
2023-03-07T22:57:31.305Z,78.64
2023-03-07T23:00:03.802Z,78.70
2023-03-07T23:02:34.688Z,78.77
2023-03-07T23:05:06.044Z,79.06
2023-03-07T23:07:40.940Z,78.90
2023-03-07T23:10:15.715Z,79.06
2023-03-07T23:12:45.324Z,78.93
2023-03-07T23:15:19.325Z,79.06
2023-03-07T23:17:50.265Z,79.00
2023-03-07T23:20:25.919Z,79.00
2023-03-07T23:22:57.745Z,78.70
2023-03-07T23:25:29.406Z,78.95
2023-03-07T23:27:59.644Z,79.27
2023-03-07T23:30:30.144Z,79.12
2023-03-07T23:33:01.302Z,78.87
2023-03-07T23:35:34.256Z,79.01
2023-03-07T23:38:05.138Z,78.98
2023-03-07T23:40:37.638Z,79.26
2023-03-07T23:43:07.939Z,79.04
2023-03-07T23:45:40.877Z,79.09
2023-03-07T23:48:13.813Z,79.17
2023-03-07T23:50:44.256Z,79.19
2023-03-07T23:53:15.060Z,79.43
2023-03-07T23:55:47.545Z,79.41
2023-03-07T23:58:18.354Z,79.45
